Time;durP1;ratioP1;P1;durP2;ratioP2;P2;SDS_P1;SDS_P2;PMS_P1;PMS_P2;Temp;Humidity;BMP_temperature;BMP_pressure;BME280_temperature;BME280_humidity;BME280_pressure;Samples;Min_cycle;Max_cycle;Signal;HPM_P1;HPM_P2
2023/10/25 00:00:14;;;;;;;;;;;13.60;70.00;;;8.96;100.00;94542.69;4991501;28;19964;-52
2023/10/25 00:02:40;;;;;;;;;;;13.60;70.10;;;8.96;100.00;94540.03;4990908;28;20343;-51
2023/10/25 00:05:07;;;;;;;;;;;13.50;70.10;;;8.94;100.00;94542.19;5010644;28;20019;-53
2023/10/25 00:07:33;;;;;;;;;;;13.50;70.20;;;8.96;100.00;94542.69;5010919;28;19992;-52
2023/10/25 00:10:01;;;;;;;;;;;13.50;70.20;;;8.94;100.00;94538.72;5009601;28;20117;-56
2023/10/25 00:12:28;;;;;;;;;;;13.50;70.30;;;8.92;100.00;94544.31;5010719;28;20390;-54
2023/10/25 00:14:54;;;;;;;;;;;13.50;70.30;;;8.88;100.00;94540.63;5010106;28;20404;-54
2023/10/25 00:17:20;;;;;;;;;;;13.50;70.30;;;8.87;100.00;94541.72;5001408;28;20005;-55
2023/10/25 00:19:45;;;;;;;;;;;13.50;70.30;;;8.84;100.00;94549.41;5010847;28;19916;-52
2023/10/25 00:22:12;;;;;;;;;;;13.50;70.30;;;8.82;100.00;94539.09;5009807;28;19913;-52
2023/10/25 00:24:38;;;;;;;;;;;13.40;70.30;;;8.78;100.00;94538.84;5009129;28;19913;-56
2023/10/25 00:27:04;;;;;;;;;;;13.40;70.30;;;8.79;100.00;94542.31;5001292;28;20004;-55
2023/10/25 00:29:30;;;;;;;;;;;13.40;70.30;;;8.80;100.00;94539.34;4999315;28;20406;-54
2023/10/25 00:31:56;;;;;;;;;;;13.40;70.30;;;8.74;100.00;94537.03;5007481;28;19909;-53
2023/10/25 00:34:21;;;;;;;;;;;13.40;70.30;;;8.79;100.00;94531.69;5009318;28;19962;-56
2023/10/25 00:36:47;;;;;;;;;;;13.40;70.30;;;8.78;100.00;94530.88;5010830;28;19958;-55
2023/10/25 00:39:13;;;;;;;;;;;13.40;70.30;;;8.78;100.00;94530.88;5012684;28;19909;-54
2023/10/25 00:41:39;;;;;;;;;;;13.40;70.30;;;8.75;100.00;94531.44;5013164;28;19956;-54
2023/10/25 00:44:05;;;;;;;;;;;13.30;70.30;;;8.66;100.00;94525.16;5007388;28;19915;-55
2023/10/25 00:46:31;;;;;;;;;;;13.30;70.30;;;8.66;100.00;94529.66;5006958;28;20399;-53
2023/10/25 00:49:00;;;;;;;;;;;13.30;70.30;;;8.68;100.00;94522.19;5013088;28;20008;-53
2023/10/25 00:51:28;;;;;;;;;;;13.30;70.40;;;8.65;100.00;94520.91;5009021;28;20031;-53
2023/10/25 00:53:55;;;;;;;;;;;13.30;70.30;;;8.58;100.00;94512.44;5013792;28;19924;-53
2023/10/25 00:56:25;;;;;;;;;;;13.20;70.30;;;8.61;100.00;94513.75;5007940;28;19913;-55
2023/10/25 00:58:56;;;;;;;;;;;13.20;70.40;;;8.61;100.00;94503.16;5010270;28;19948;-55
2023/10/25 01:01:25;;;;;;;;;;;13.20;70.40;;;8.57;100.00;94509.00;5010522;28;20284;-54
2023/10/25 01:03:51;;;;;;;;;;;13.20;70.40;;;8.62;100.00;94512.69;5009222;28;19916;-56
2023/10/25 01:06:17;;;;;;;;;;;13.20;70.40;;;8.64;100.00;94518.53;4997098;28;19943;-56
2023/10/25 01:08:44;;;;;;;;;;;13.20;70.50;;;8.61;100.00;94517.22;5014133;28;20425;-56
2023/10/25 01:11:11;;;;;;;;;;;13.20;70.50;;;8.62;100.00;94516.16;4994146;28;19916;-53
2023/10/25 01:13:37;;;;;;;;;;;13.20;70.50;;;8.58;100.00;94510.59;5012322;28;19909;-56
2023/10/25 01:16:04;;;;;;;;;;;13.20;70.60;;;8.61;100.00;94508.47;5012932;28;20260;-54
2023/10/25 01:18:30;;;;;;;;;;;13.20;70.60;;;8.60;100.00;94499.72;5013866;28;20310;-54
2023/10/25 01:20:56;;;;;;;;;;;13.20;70.50;;;8.62;100.00;94496.75;5011328;28;19966;-54
2023/10/25 01:23:22;;;;;;;;;;;13.20;70.60;;;8.62;100.00;94500.22;5001558;28;19909;-56
2023/10/25 01:25:47;;;;;;;;;;;13.30;70.60;;;8.59;100.00;94503.44;5008316;28;20322;-55
2023/10/25 01:28:13;;;;;;;;;;;13.30;70.60;;;8.65;100.00;94497.03;5010081;28;19924;-55
2023/10/25 01:30:40;;;;;;;;;;;13.30;70.60;;;8.68;100.00;94493.00;5013618;28;20360;-53
2023/10/25 01:33:07;;;;;;;;;;;13.30;70.60;;;8.70;100.00;94496.97;5010780;28;19916;-56
2023/10/25 01:35:34;;;;;;;;;;;13.30;70.60;;;8.69;100.00;94498.03;5013493;28;19909;-54
2023/10/25 01:38:01;;;;;;;;;;;13.30;70.60;;;8.72;100.00;94489.53;5012277;28;19909;-55
2023/10/25 01:40:27;;;;;;;;;;;13.40;70.60;;;8.72;100.00;94480.75;5012446;28;20339;-56
2023/10/25 01:42:54;;;;;;;;;;;13.30;70.50;;;8.73;100.00;94474.38;5012882;28;20054;-55
2023/10/25 01:45:27;;;;;;;;;;;13.30;70.50;;;8.64;100.00;94470.75;5012703;28;19913;-55
2023/10/25 01:47:52;;;;;;;;;;;13.40;70.50;;;8.65;100.00;94475.78;4993835;28;20293;-50
2023/10/25 01:50:19;;;;;;;;;;;13.30;70.50;;;8.70;100.00;94478.38;5005864;28;19909;-54
2023/10/25 01:52:45;;;;;;;;;;;13.30;70.50;;;8.72;100.00;94478.13;5011818;28;19909;-50
2023/10/25 01:55:11;;;;;;;;;;;13.30;70.50;;;8.70;100.00;94477.59;5012870;28;19909;-55
2023/10/25 01:57:37;;;;;;;;;;;13.30;70.60;;;8.69;100.00;94473.34;5012386;28;19995;-53
2023/10/25 02:00:06;;;;;;;;;;;13.30;70.60;;;8.71;100.00;94465.88;5013019;28;20028;-50
2023/10/25 02:02:33;;;;;;;;;;;13.30;70.60;;;8.73;100.00;94463.75;5004470;28;19913;-55
2023/10/25 02:04:59;;;;;;;;;;;13.40;70.60;;;8.75;100.00;94466.94;5010797;28;20435;-56
2023/10/25 02:07:24;;;;;;;;;;;13.30;70.60;;;8.75;100.00;94461.63;5013053;28;19996;-56
2023/10/25 02:09:50;;;;;;;;;;;13.40;70.50;;;8.72;100.00;94451.56;5007841;28;19916;-56
2023/10/25 02:12:16;;;;;;;;;;;13.40;70.50;;;8.69;100.00;94460.09;5012545;28;20359;-56
2023/10/25 02:14:42;;;;;;;;;;;13.30;70.40;;;8.66;100.00;94452.69;5012311;28;19909;-56
2023/10/25 02:17:08;;;;;;;;;;;13.30;70.40;;;8.65;100.00;94457.19;5005715;28;20405;-51
2023/10/25 02:19:35;;;;;;;;;;;13.30;70.40;;;8.65;100.00;94437.81;5012734;28;19909;-56
2023/10/25 02:22:01;;;;;;;;;;;13.30;70.30;;;8.64;100.00;94444.19;5011855;28;19913;-52
2023/10/25 02:24:27;;;;;;;;;;;13.30;70.30;;;8.60;100.00;94443.97;5012227;28;19916;-53
2023/10/25 02:26:53;;;;;;;;;;;13.30;70.30;;;8.54;100.00;94440.56;5012659;28;19937;-56
2023/10/25 02:29:18;;;;;;;;;;;13.20;70.20;;;8.50;100.00;94436.88;5011781;28;19932;-53
2023/10/25 02:31:44;;;;;;;;;;;13.20;70.20;;;8.44;100.00;94439.88;5012508;28;19909;-56
2023/10/25 02:34:10;;;;;;;;;;;13.10;70.10;;;8.41;100.00;94440.41;5011384;28;19909;-56
2023/10/25 02:36:36;;;;;;;;;;;13.10;70.10;;;8.33;100.00;94437.25;5012717;28;19909;-56
2023/10/25 02:39:02;;;;;;;;;;;13.00;70.20;;;8.28;100.00;94429.34;5011332;28;19913;-55
2023/10/25 02:41:27;;;;;;;;;;;12.90;70.10;;;8.22;100.00;94434.97;5006471;28;19920;-56
2023/10/25 02:43:54;;;;;;;;;;;12.90;70.10;;;8.13;100.00;94436.63;5011882;28;19917;-56
2023/10/25 02:46:20;;;;;;;;;;;12.90;70.10;;;8.07;100.00;94422.59;4996180;28;19916;-56
2023/10/25 02:48:46;;;;;;;;;;;12.80;70.10;;;7.96;100.00;94426.38;5004820;28;19931;-55
2023/10/25 02:51:12;;;;;;;;;;;12.70;70.00;;;7.91;100.00;94421.91;5010884;28;20004;-54
2023/10/25 02:53:38;;;;;;;;;;;12.70;70.00;;;7.81;100.00;94420.13;5009632;28;20402;-52
2023/10/25 02:56:07;;;;;;;;;;;12.60;70.00;;;7.82;100.00;94419.06;5007279;28;19909;-53
2023/10/25 02:58:34;;;;;;;;;;;12.50;70.10;;;7.79;100.00;94416.94;5009981;28;19948;-53
2023/10/25 03:01:00;;;;;;;;;;;12.50;70.10;;;7.76;100.00;94414.06;5010839;28;20272;-56
2023/10/25 03:03:31;;;;;;;;;;;12.40;70.10;;;7.73;100.00;94426.00;5003360;28;19919;-54
2023/10/25 03:05:58;;;;;;;;;;;12.30;70.20;;;7.67;100.00;94429.75;5008886;28;19912;-56
2023/10/25 03:08:26;;;;;;;;;;;12.30;70.30;;;7.59;100.00;94425.81;5011956;28;19916;-52
2023/10/25 03:10:51;;;;;;;;;;;12.20;70.30;;;7.59;100.00;94430.34;5010568;28;19913;-53
2023/10/25 03:13:18;;;;;;;;;;;12.20;70.30;;;7.56;100.00;94418.41;5009781;28;19936;-55
2023/10/25 03:15:44;;;;;;;;;;;12.20;70.40;;;7.53;100.00;94413.66;5010714;28;20576;-55
2023/10/25 03:18:10;;;;;;;;;;;12.10;70.40;;;7.47;100.00;94411.31;5011674;28;19909;-53
2023/10/25 03:20:36;;;;;;;;;;;12.10;70.40;;;7.41;100.00;94411.34;5011789;28;20335;-52
2023/10/25 03:23:02;;;;;;;;;;;12.00;70.20;;;7.36;100.00;94410.56;5009938;28;19964;-50
2023/10/25 03:25:28;;;;;;;;;;;12.00;70.20;;;7.30;100.00;94420.41;5011348;28;19920;-51
2023/10/25 03:27:53;;;;;;;;;;;11.90;70.30;;;7.27;100.00;94406.88;5010104;28;19909;-53
2023/10/25 03:30:19;;;;;;;;;;;11.90;70.40;;;7.23;100.00;94398.69;4994313;28;19960;-54
2023/10/25 03:32:45;;;;;;;;;;;11.80;70.40;;;7.19;100.00;94402.97;5006301;28;19913;-53
2023/10/25 03:35:12;;;;;;;;;;;11.80;70.40;;;7.15;100.00;94408.00;5010403;28;19916;-56
2023/10/25 03:37:41;;;;;;;;;;;11.80;70.50;;;7.13;100.00;94402.19;5011395;28;19913;-52
2023/10/25 03:40:11;;;;;;;;;;;11.80;70.50;;;7.13;100.00;94407.47;5010538;28;19932;-55
2023/10/25 03:42:38;;;;;;;;;;;11.70;70.60;;;7.16;100.00;94395.56;5005731;28;19928;-52
2023/10/25 03:45:06;;;;;;;;;;;11.70;70.70;;;7.15;100.00;94397.41;5010366;28;19909;-53
2023/10/25 03:47:37;;;;;;;;;;;11.70;70.70;;;7.14;100.00;94390.53;5011356;28;20027;-51
2023/10/25 03:50:07;;;;;;;;;;;11.70;70.80;;;7.14;100.00;94387.88;5011135;28;19915;-53
2023/10/25 03:52:33;;;;;;;;;;;11.80;70.90;;;7.18;100.00;94380.19;5009618;28;20074;-53
2023/10/25 03:54:59;;;;;;;;;;;11.70;70.80;;;7.15;100.00;94378.09;5010783;28;20004;-50
2023/10/25 03:57:25;;;;;;;;;;;11.70;70.70;;;7.12;100.00;94368.84;4996730;28;20335;-52
2023/10/25 03:59:51;;;;;;;;;;;11.70;70.60;;;7.05;100.00;94375.47;5011268;28;19909;-54
2023/10/25 04:02:16;;;;;;;;;;;11.70;70.50;;;7.00;100.00;94372.84;5001010;28;19935;-54
2023/10/25 04:04:42;;;;;;;;;;;11.60;70.50;;;6.93;100.00;94378.44;5010052;28;19916;-56
2023/10/25 04:07:12;;;;;;;;;;;11.60;70.60;;;6.90;100.00;94371.03;5010775;28;20405;-49
2023/10/25 04:09:38;;;;;;;;;;;11.60;70.60;;;6.89;100.00;94385.31;5010039;28;19913;-54
2023/10/25 04:12:04;;;;;;;;;;;11.50;70.50;;;6.85;100.00;94377.13;5010096;28;19940;-50
2023/10/25 04:14:30;;;;;;;;;;;11.50;70.50;;;6.82;100.00;94380.31;5010468;28;20398;-50
2023/10/25 04:16:56;;;;;;;;;;;11.40;70.90;;;6.73;100.00;94376.63;5010106;28;19913;-53
2023/10/25 04:19:21;;;;;;;;;;;11.40;70.50;;;6.65;100.00;94374.56;5010870;28;20348;-56
2023/10/25 04:21:47;;;;;;;;;;;11.30;70.50;;;6.59;100.00;94373.78;5007233;28;20016;-54
2023/10/25 04:24:13;;;;;;;;;;;11.30;70.60;;;6.54;100.00;94375.63;5009150;28;20004;-55
2023/10/25 04:26:39;;;;;;;;;;;11.30;70.60;;;6.54;100.00;94367.69;5010649;28;19916;-53
2023/10/25 04:29:05;;;;;;;;;;;11.20;70.50;;;6.46;100.00;94359.25;5010054;28;19916;-54
2023/10/25 04:31:31;;;;;;;;;;;11.10;70.40;;;6.44;100.00;94358.72;5009849;28;19967;-54
2023/10/25 04:33:59;;;;;;;;;;;11.10;70.50;;;6.37;100.00;94352.94;5002149;28;19945;-55
2023/10/25 04:36:24;;;;;;;;;;;11.10;70.50;;;6.35;100.00;94346.31;5010700;28;19909;-56
2023/10/25 04:38:50;;;;;;;;;;;11.00;70.50;;;6.25;100.00;94344.47;5010412;28;19996;-56
2023/10/25 04:41:16;;;;;;;;;;;11.00;70.50;;;6.19;100.00;94341.03;5009443;28;19986;-56
2023/10/25 04:43:44;;;;;;;;;;;10.90;70.50;;;6.17;100.00;94339.72;5010171;28;20423;-56
2023/10/25 04:46:17;;;;;;;;;;;10.90;70.50;;;6.11;100.00;94344.25;5002326;28;20008;-56
2023/10/25 04:48:43;;;;;;;;;;;10.80;70.50;;;6.06;100.00;94335.53;5006260;28;19908;-53
2023/10/25 04:51:13;;;;;;;;;;;10.80;70.60;;;6.01;100.00;94333.66;5007167;28;19920;-55
2023/10/25 04:53:40;;;;;;;;;;;10.70;70.60;;;5.93;100.00;94332.34;5010012;28;19994;-54
2023/10/25 04:56:07;;;;;;;;;;;10.70;70.50;;;5.86;100.00;94323.88;5010141;28;19945;-51
2023/10/25 04:58:33;;;;;;;;;;;10.60;70.50;;;5.80;100.00;94320.44;5009019;28;19913;-49
2023/10/25 05:00:59;;;;;;;;;;;10.50;70.50;;;5.72;100.00;94313.03;5010679;28;20266;-53
2023/10/25 05:03:24;;;;;;;;;;;10.50;70.50;;;5.72;100.00;94304.31;5006916;28;19917;-53
2023/10/25 05:05:50;;;;;;;;;;;10.50;70.60;;;5.71;100.00;94308.81;4998722;28;19917;-55
2023/10/25 05:08:16;;;;;;;;;;;10.50;70.70;;;5.69;100.00;94308.28;5003728;28;20368;-53
2023/10/25 05:10:50;;;;;;;;;;;10.40;70.70;;;5.67;100.00;94305.13;5004381;28;19909;-54
2023/10/25 05:13:16;;;;;;;;;;;10.40;70.90;;;5.69;100.00;94302.22;5010118;28;19909;-54
2023/10/25 05:15:42;;;;;;;;;;;10.30;70.80;;;5.67;100.00;94289.28;5009064;28;19932;-54
2023/10/25 05:18:09;;;;;;;;;;;10.40;70.90;;;5.65;100.00;94278.16;5010500;28;19913;-55
2023/10/25 05:20:35;;;;;;;;;;;10.30;70.90;;;5.63;100.00;94271.56;5009520;28;19909;-54
2023/10/25 05:23:03;;;;;;;;;;;10.30;70.90;;;5.62;100.00;94273.41;5009501;28;20406;-53
2023/10/25 05:25:29;;;;;;;;;;;10.30;71.00;;;5.55;100.00;94281.59;5012525;28;19916;-53
2023/10/25 05:27:56;;;;;;;;;;;10.20;70.90;;;5.59;100.00;94276.59;4999952;28;19917;-52
2023/10/25 05:30:22;;;;;;;;;;;10.20;71.00;;;5.59;100.00;94283.72;5008471;28;19909;-53
2023/10/25 05:32:52;;;;;;;;;;;10.20;71.00;;;5.57;100.00;94289.25;5004531;28;19919;-54
2023/10/25 05:35:18;;;;;;;;;;;10.20;71.00;;;5.52;100.00;94295.34;5002423;28;19947;-49
2023/10/25 05:37:44;;;;;;;;;;;10.20;71.10;;;5.49;100.00;94298.50;5006745;28;19909;-54
2023/10/25 05:40:11;;;;;;;;;;;10.20;71.00;;;5.46;100.00;94291.09;5006618;28;19931;-52
2023/10/25 05:42:47;;;;;;;;;;;10.10;71.00;;;5.44;100.00;94287.94;4951487;28;21689;-54
2023/10/25 05:45:16;;;;;;;;;;;10.10;71.10;;;5.45;100.00;94281.63;5004616;28;19909;-52
2023/10/25 05:47:43;;;;;;;;;;;10.10;71.10;;;5.46;100.00;94287.69;5004633;28;19913;-54
2023/10/25 05:50:10;;;;;;;;;;;10.10;71.20;;;5.44;100.00;94292.44;4999991;28;19964;-53
2023/10/25 05:52:37;;;;;;;;;;;10.10;71.20;;;5.42;100.00;94290.06;5011844;28;20439;-51
2023/10/25 05:55:04;;;;;;;;;;;10.10;71.20;;;5.47;100.00;94281.34;5010529;28;19921;-50
2023/10/25 05:57:30;;;;;;;;;;;10.10;71.30;;;5.47;100.00;94276.84;5011920;28;19934;-52
2023/10/25 05:59:56;;;;;;;;;;;10.10;71.40;;;5.48;100.00;94281.06;5012526;28;20007;-54
2023/10/25 06:02:27;;;;;;;;;;;10.10;71.30;;;5.47;100.00;94278.69;5012164;28;20422;-54
2023/10/25 06:04:56;;;;;;;;;;;10.10;71.30;;;5.44;100.00;94273.94;5011058;28;19917;-49
2023/10/25 06:07:24;;;;;;;;;;;10.10;71.30;;;5.48;100.00;94273.13;5011143;28;20036;-50
2023/10/25 06:09:50;;;;;;;;;;;10.10;71.30;;;5.54;100.00;94269.44;5011706;28;20410;-51
2023/10/25 06:12:17;;;;;;;;;;;10.10;71.30;;;5.56;100.00;94269.97;5027341;28;19915;-49
2023/10/25 06:14:43;;;;;;;;;;;10.10;71.30;;;5.56;100.00;94272.63;5011488;28;19909;-47
2023/10/25 06:17:09;;;;;;;;;;;10.20;71.30;;;5.59;100.00;94273.16;5006341;28;19915;-47
2023/10/25 06:19:34;;;;;;;;;;;10.20;71.30;;;5.60;100.00;94270.22;5009917;28;20004;-48
2023/10/25 06:22:00;;;;;;;;;;;10.20;71.30;;;5.57;100.00;94271.53;5009706;28;20451;-49
2023/10/25 06:24:26;;;;;;;;;;;10.20;71.20;;;5.55;100.00;94271.03;5011771;28;20498;-47
2023/10/25 06:26:52;;;;;;;;;;;10.30;71.30;;;5.61;100.00;94271.84;5011876;28;20554;-47
2023/10/25 06:29:18;;;;;;;;;;;10.30;71.30;;;5.65;100.00;94270.25;5008328;28;19951;-49
2023/10/25 06:31:50;;;;;;;;;;;10.30;71.30;;;5.64;100.00;94271.31;5012095;28;19909;-47
2023/10/25 06:34:19;;;;;;;;;;;10.30;71.30;;;5.68;100.00;94282.91;5009502;28;20356;-49
2023/10/25 06:36:46;;;;;;;;;;;10.30;71.30;;;5.72;100.00;94275.25;4999135;28;20005;-48
2023/10/25 06:39:13;;;;;;;;;;;10.40;71.30;;;5.79;100.00;94283.69;4999696;28;19909;-49
2023/10/25 06:41:39;;;;;;;;;;;10.40;71.30;;;5.85;100.00;94276.56;5009092;28;20489;-47
2023/10/25 06:44:06;;;;;;;;;;;10.50;71.50;;;5.91;100.00;94278.13;5011581;28;19913;-50
2023/10/25 06:46:33;;;;;;;;;;;10.50;71.40;;;5.94;100.00;94270.50;5002555;28;20567;-50
2023/10/25 06:48:59;;;;;;;;;;;10.60;71.50;;;6.00;100.00;94276.56;5002390;28;19913;-47
2023/10/25 06:51:26;;;;;;;;;;;10.60;71.40;;;6.03;100.00;94271.53;4995346;28;19946;-47
2023/10/25 06:53:53;;;;;;;;;;;10.70;71.40;;;6.07;100.00;94271.00;5004390;28;19917;-47
2023/10/25 06:56:20;;;;;;;;;;;10.80;71.40;;;6.11;100.00;94267.56;5005782;28;19909;-48
2023/10/25 06:58:46;;;;;;;;;;;10.90;71.30;;;6.23;100.00;94268.03;5002747;28;19909;-49
2023/10/25 07:01:15;;;;;;;;;;;11.00;71.40;;;6.46;100.00;94273.81;5011831;28;19909;-51
2023/10/25 07:03:48;;;;;;;;;;;11.20;71.60;;;6.57;100.00;94271.91;5011035;28;20003;-52
2023/10/25 07:06:18;;;;;;;;;;;11.30;71.50;;;6.67;100.00;94272.66;5011852;28;20272;-47
2023/10/25 07:08:48;;;;;;;;;;;11.50;71.50;;;6.87;100.00;94271.00;5011542;28;20364;-47
2023/10/25 07:11:14;;;;;;;;;;;11.70;71.60;;;7.06;100.00;94277.25;5010795;28;19909;-48
2023/10/25 07:13:40;;;;;;;;;;;11.80;71.70;;;7.24;100.00;94275.81;5011736;28;20395;-51
2023/10/25 07:16:07;;;;;;;;;;;12.00;71.70;;;7.40;100.00;94265.91;5010790;28;19963;-49
2023/10/25 07:18:36;;;;;;;;;;;12.20;71.60;;;7.60;100.00;94262.31;5011394;28;19909;-49
2023/10/25 07:21:02;;;;;;;;;;;12.40;71.60;;;7.76;100.00;94268.25;5011542;28;19913;-51
2023/10/25 07:23:28;;;;;;;;;;;12.60;71.60;;;7.92;100.00;94264.41;5001753;28;19959;-48
2023/10/25 07:25:53;;;;;;;;;;;12.80;71.50;;;8.07;100.00;94252.88;5011297;28;20007;-48
2023/10/25 07:28:21;;;;;;;;;;;13.00;71.40;;;8.23;100.00;94251.63;5009895;28;19909;-51
2023/10/25 07:30:47;;;;;;;;;;;13.10;71.20;;;8.39;100.00;94248.84;5011625;28;20398;-51
2023/10/25 07:33:13;;;;;;;;;;;13.40;71.10;;;8.54;100.00;94240.72;5010509;28;19986;-49
2023/10/25 07:35:39;;;;;;;;;;;13.60;71.00;;;8.66;100.00;94248.28;5007390;28;19967;-50
2023/10/25 07:38:04;;;;;;;;;;;13.70;70.90;;;8.75;100.00;94244.69;5010843;28;19920;-51
2023/10/25 07:40:30;;;;;;;;;;;13.90;70.80;;;8.84;100.00;94244.03;5010015;28;20236;-48
2023/10/25 07:42:56;;;;;;;;;;;14.00;70.60;;;8.95;100.00;94248.16;5010905;28;19920;-48
2023/10/25 07:45:22;;;;;;;;;;;14.20;70.50;;;9.09;100.00;94245.56;5010553;28;19924;-47
2023/10/25 07:47:49;;;;;;;;;;;14.40;70.40;;;9.21;100.00;94240.63;5010161;28;19916;-51
2023/10/25 07:50:18;;;;;;;;;;;14.50;70.20;;;9.36;100.00;94245.72;5011080;28;20431;-52
2023/10/25 07:52:45;;;;;;;;;;;14.70;70.10;;;9.62;100.00;94256.75;5009921;28;19932;-51
2023/10/25 07:55:12;;;;;;;;;;;15.10;70.00;;;9.97;100.00;94249.25;5010930;28;19909;-48
2023/10/25 07:57:38;;;;;;;;;;;15.60;69.70;;;10.35;100.00;94249.16;5003219;28;19913;-54
2023/10/25 08:00:05;;;;;;;;;;;16.00;69.30;;;10.71;100.00;94248.44;5010478;28;19955;-52
2023/10/25 08:02:31;;;;;;;;;;;16.60;69.10;;;11.00;100.00;94240.09;5010921;28;19921;-48
2023/10/25 08:04:57;;;;;;;;;;;17.10;68.70;;;11.14;100.00;94238.22;5009814;28;19913;-50
2023/10/25 08:07:26;;;;;;;;;;;17.40;68.20;;;11.39;100.00;94234.19;5010057;28;20299;-49
2023/10/25 08:09:52;;;;;;;;;;;17.80;68.00;;;11.53;100.00;94224.28;5009377;28;19917;-51
2023/10/25 08:12:18;;;;;;;;;;;18.20;67.70;;;11.69;100.00;94215.88;5010803;28;20284;-50
2023/10/25 08:14:44;;;;;;;;;;;18.30;67.30;;;11.76;100.00;94218.94;5002995;28;19909;-49
2023/10/25 08:17:10;;;;;;;;;;;18.50;67.20;;;11.52;100.00;94221.91;5009496;28;19909;-52
2023/10/25 08:19:36;;;;;;;;;;;18.50;66.90;;;11.56;100.00;94220.19;5010421;28;19954;-51
2023/10/25 08:22:08;;;;;;;;;;;18.50;66.50;;;11.76;100.00;94222.38;5004445;28;19913;-50
2023/10/25 08:24:34;;;;;;;;;;;18.50;66.40;;;11.89;100.00;94218.09;5003239;28;20533;-50
2023/10/25 08:27:00;;;;;;;;;;;18.60;66.40;;;12.12;100.00;94226.81;5011024;28;19935;-51
2023/10/25 08:29:26;;;;;;;;;;;18.80;66.20;;;12.32;100.00;94222.84;5008582;28;19912;-48
2023/10/25 08:31:52;;;;;;;;;;;18.90;66.20;;;12.39;100.00;94230.41;5010740;28;19917;-48
2023/10/25 08:34:18;;;;;;;;;;;19.10;66.30;;;12.40;100.00;94218.63;5009627;28;19909;-49
2023/10/25 08:36:44;;;;;;;;;;;19.10;66.10;;;12.46;100.00;94212.84;5002862;28;19916;-49
2023/10/25 08:39:10;;;;;;;;;;;19.00;66.00;;;12.56;100.00;94219.78;5008810;28;19913;-51
2023/10/25 08:41:39;;;;;;;;;;;19.10;66.20;;;12.46;100.00;94220.84;5004724;28;19917;-49
2023/10/25 08:44:05;;;;;;;;;;;19.10;66.00;;;12.38;100.00;94215.47;5009151;28;19909;-52
2023/10/25 08:46:33;;;;;;;;;;;19.00;65.80;;;12.30;100.00;94206.34;5007175;28;19916;-51
2023/10/25 08:48:59;;;;;;;;;;;18.90;65.50;;;12.39;100.00;94199.16;5008788;28;19909;-52
2023/10/25 08:51:25;;;;;;;;;;;18.80;65.50;;;12.45;100.00;94197.13;4982988;28;19953;-49
2023/10/25 08:53:54;;;;;;;;;;;18.80;65.60;;;12.39;100.00;94198.38;5006763;28;20014;-49
2023/10/25 08:56:20;;;;;;;;;;;18.70;65.50;;;12.43;100.00;94197.44;4997102;28;19916;-48
2023/10/25 08:58:46;;;;;;;;;;;18.60;65.60;;;12.56;100.00;94197.63;4996669;28;20440;-50
2023/10/25 09:01:12;;;;;;;;;;;18.60;65.80;;;12.45;100.00;94200.59;5002524;28;20047;-50
2023/10/25 09:03:39;;;;;;;;;;;18.60;66.10;;;12.55;100.00;94196.06;4997921;28;19913;-50
2023/10/25 09:06:08;;;;;;;;;;;18.50;65.70;;;12.66;100.00;94186.66;5002123;28;20074;-50
2023/10/25 09:08:36;;;;;;;;;;;18.60;65.80;;;12.78;100.00;94191.41;4998690;28;19919;-51
2023/10/25 09:11:05;;;;;;;;;;;18.70;65.90;;;12.87;100.00;94190.31;4997518;28;20008;-48
2023/10/25 09:13:34;;;;;;;;;;;18.70;65.80;;;12.93;100.00;94188.28;4998214;28;19909;-50
2023/10/25 09:16:06;;;;;;;;;;;18.80;65.70;;;13.03;100.00;94187.97;4995789;28;19913;-49
2023/10/25 09:18:35;;;;;;;;;;;19.00;65.60;;;13.04;100.00;94189.56;5013284;28;19955;-50
2023/10/25 09:21:04;;;;;;;;;;;19.10;65.40;;;13.15;100.00;94192.69;5013726;28;19956;-50
2023/10/25 09:23:31;;;;;;;;;;;19.20;65.30;;;13.16;100.00;94192.41;5012797;28;19912;-50
2023/10/25 09:25:58;;;;;;;;;;;19.30;65.20;;;13.26;100.00;94182.53;5013653;28;19932;-48
2023/10/25 09:28:28;;;;;;;;;;;19.30;65.10;;;13.23;100.00;94178.56;5012574;28;20405;-49
2023/10/25 09:31:02;;;;;;;;;;;19.40;65.00;;;13.31;100.00;94172.44;5013633;28;20439;-49
2023/10/25 09:33:30;;;;;;;;;;;19.50;64.90;;;13.35;100.00;94168.06;5010006;28;20031;-49
2023/10/25 09:35:57;;;;;;;;;;;19.60;64.70;;;13.35;100.00;94165.38;5005148;28;19909;-46
2023/10/25 09:38:24;;;;;;;;;;;19.70;64.50;;;13.52;100.00;94159.22;5007716;28;20431;-46
2023/10/25 09:40:51;;;;;;;;;;;19.80;64.30;;;13.66;100.00;94159.03;5012258;28;19909;-49
2023/10/25 09:43:21;;;;;;;;;;;19.90;64.10;;;13.83;100.00;94158.22;5013390;28;20353;-46
2023/10/25 09:45:52;;;;;;;;;;;20.10;64.10;;;13.98;94.44;94164.94;5005000;28;19909;-46
2023/10/25 09:48:20;;;;;;;;;;;20.20;64.00;;;13.92;96.29;94156.28;5006494;28;19916;-45
2023/10/25 09:51:15;;;;;;;;;;;20.30;63.80;;;13.98;95.19;94157.69;5005897;28;19939;-48
2023/10/25 09:53:53;;;;;;;;;;;20.40;63.50;;;13.92;95.85;94152.84;5004209;28;19917;-46
2023/10/25 09:56:20;;;;;;;;;;;20.40;63.30;;;14.08;96.81;94156.56;5003802;28;19952;-48
2023/10/25 09:58:47;;;;;;;;;;;20.50;63.20;;;14.16;93.77;94149.59;5001938;28;19978;-46
2023/10/25 10:01:13;;;;;;;;;;;20.50;63.10;;;14.17;93.45;94151.19;5007803;28;20184;-50
2023/10/25 10:04:02;;;;;;;;;;;20.70;62.80;;;14.39;94.82;94161.63;4999947;28;19998;-46
2023/10/25 10:07:18;;;;;;;;;;;20.80;62.60;;;14.49;94.53;94136.34;5001651;28;19916;-50
2023/10/25 10:10:22;;;;;;;;;;;20.80;62.30;;;14.56;92.24;94139.34;5003825;28;19916;-46
2023/10/25 10:12:48;;;;;;;;;;;21.00;62.20;;;14.49;89.14;94133.69;4998670;28;20375;-53
2023/10/25 10:15:14;;;;;;;;;;;21.10;61.60;;;14.57;89.33;94128.31;4996637;28;19909;-45
2023/10/25 10:17:45;;;;;;;;;;;21.10;61.30;;;14.68;90.38;94126.03;5001709;28;19914;-44
2023/10/25 10:20:28;;;;;;;;;;;21.10;61.20;;;14.81;88.77;94124.97;4997570;28;19913;-46
2023/10/25 10:23:07;;;;;;;;;;;21.20;61.30;;;14.58;85.39;94121.84;5005224;28;19924;-46
2023/10/25 10:25:47;;;;;;;;;;;21.30;60.30;;;14.89;89.10;94112.66;4996716;28;19909;-48
2023/10/25 10:28:16;;;;;;;;;;;21.50;60.20;;;15.02;86.82;94122.31;4996372;28;20273;-46
2023/10/25 10:30:42;;;;;;;;;;;21.70;60.30;;;15.19;89.08;94123.28;4997348;28;20020;-44
2023/10/25 10:33:11;;;;;;;;;;;21.80;60.30;;;15.08;84.85;94128.28;5006147;28;19909;-47
2023/10/25 10:35:49;;;;;;;;;;;22.00;59.90;;;15.36;84.15;94117.78;5000040;28;19913;-44
2023/10/25 10:38:15;;;;;;;;;;;22.00;59.60;;;15.44;84.00;94114.22;5007495;28;20305;-44
2023/10/25 10:40:41;;;;;;;;;;;22.10;59.60;;;15.54;82.45;94121.06;5015332;28;19935;-44
2023/10/25 10:43:07;;;;;;;;;;;22.10;59.50;;;15.59;82.32;94128.13;5008196;28;19917;-44
2023/10/25 10:45:35;;;;;;;;;;;22.10;59.30;;;15.54;79.72;94113.00;4998912;28;20019;-46
2023/10/25 10:48:09;;;;;;;;;;;22.10;59.20;;;15.69;77.93;94101.69;5002991;28;19960;-46
2023/10/25 10:50:40;;;;;;;;;;;22.50;58.70;;;16.08;77.55;94080.72;5012669;28;20283;-45
2023/10/25 10:53:06;;;;;;;;;;;23.20;58.40;;;16.27;75.75;94082.06;5012050;28;20004;-45
2023/10/25 10:55:32;;;;;;;;;;;23.50;58.30;;;16.39;78.42;94079.38;5011480;28;19909;-44
2023/10/25 10:57:58;;;;;;;;;;;23.60;58.00;;;16.45;76.23;94063.78;5011873;28;19943;-51
2023/10/25 11:00:25;;;;;;;;;;;23.60;57.80;;;16.45;78.59;94080.69;5011540;28;19941;-47
2023/10/25 11:02:55;;;;;;;;;;;23.50;57.60;;;16.51;80.55;94065.91;5012460;28;19916;-46
2023/10/25 11:05:24;;;;;;;;;;;23.40;57.50;;;16.47;76.37;94051.56;5010861;28;20382;-43
2023/10/25 11:07:53;;;;;;;;;;;23.40;57.60;;;16.60;80.93;94066.56;5013128;28;19909;-43
2023/10/25 11:10:19;;;;;;;;;;;23.40;57.50;;;16.68;81.64;94061.41;5006673;28;19916;-46
2023/10/25 11:12:45;;;;;;;;;;;23.50;57.40;;;17.13;79.18;94055.00;5012536;28;19909;-54
2023/10/25 11:15:13;;;;;;;;;;;24.00;58.00;;;16.97;78.28;94046.88;5010386;28;19909;-46
2023/10/25 11:17:40;;;;;;;;;;;24.20;57.40;;;17.05;78.40;94049.44;5009763;28;19916;-45